sensor_id;sensor_type;location;lat;lon;timestamp;pressure;altitude;pressure_sealevel;temperature;humidity
76753;BME280;65687;51.308;16.916;2023-07-29T00:01:22;99029.24;;;17.02;85.44
76753;BME280;65687;51.308;16.916;2023-07-29T00:06:23;99027.53;;;16.95;85.60
76753;BME280;65687;51.308;16.916;2023-07-29T00:11:25;99026.06;;;16.91;85.81
76753;BME280;65687;51.308;16.916;2023-07-29T00:16:27;99028.92;;;16.90;85.91
76753;BME280;65687;51.308;16.916;2023-07-29T00:21:28;99031.76;;;16.87;85.74
76753;BME280;65687;51.308;16.916;2023-07-29T00:26:30;99032.16;;;16.83;85.98
76753;BME280;65687;51.308;16.916;2023-07-29T00:31:31;99036.63;;;16.79;86.14
76753;BME280;65687;51.308;16.916;2023-07-29T00:36:33;99031.69;;;16.72;86.29
76753;BME280;65687;51.308;16.916;2023-07-29T00:41:34;99030.52;;;16.67;86.08
76753;BME280;65687;51.308;16.916;2023-07-29T00:46:38;99030.38;;;16.62;86.24
76753;BME280;65687;51.308;16.916;2023-07-29T00:51:39;99031.16;;;16.61;86.35
76753;BME280;65687;51.308;16.916;2023-07-29T00:56:41;99028.83;;;16.57;86.27
76753;BME280;65687;51.308;16.916;2023-07-29T01:01:42;99022.58;;;16.53;86.27
76753;BME280;65687;51.308;16.916;2023-07-29T01:12:26;99025.84;;;16.41;86.51
76753;BME280;65687;51.308;16.916;2023-07-29T01:17:43;99023.58;;;16.34;86.77
76753;BME280;65687;51.308;16.916;2023-07-29T01:22:48;99024.75;;;16.28;86.79
76753;BME280;65687;51.308;16.916;2023-07-29T01:27:49;99025.74;;;16.21;86.89
76753;BME280;65687;51.308;16.916;2023-07-29T01:32:56;99027.50;;;16.17;86.93
76753;BME280;65687;51.308;16.916;2023-07-29T01:38:08;99031.04;;;16.15;86.78
76753;BME280;65687;51.308;16.916;2023-07-29T01:43:11;99027.52;;;16.12;87.07
76753;BME280;65687;51.308;16.916;2023-07-29T01:48:13;99025.91;;;16.09;86.98
76753;BME280;65687;51.308;16.916;2023-07-29T01:53:14;99021.91;;;16.06;87.03
76753;BME280;65687;51.308;16.916;2023-07-29T01:58:16;99019.77;;;16.04;87.11
76753;BME280;65687;51.308;16.916;2023-07-29T02:03:18;99022.08;;;16.01;87.19
76753;BME280;65687;51.308;16.916;2023-07-29T02:08:19;99028.91;;;16.01;87.17
76753;BME280;65687;51.308;16.916;2023-07-29T02:13:21;99038.91;;;16.06;87.03
76753;BME280;65687;51.308;16.916;2023-07-29T02:18:22;99041.09;;;16.04;86.99
76753;BME280;65687;51.308;16.916;2023-07-29T02:23:23;99036.02;;;16.00;87.32
76753;BME280;65687;51.308;16.916;2023-07-29T02:28:25;99033.79;;;15.99;87.33
76753;BME280;65687;51.308;16.916;2023-07-29T02:33:27;99027.55;;;15.96;87.53
76753;BME280;65687;51.308;16.916;2023-07-29T02:38:28;99021.84;;;15.98;87.57
76753;BME280;65687;51.308;16.916;2023-07-29T02:43:30;99018.61;;;15.99;87.23
76753;BME280;65687;51.308;16.916;2023-07-29T02:48:31;99010.23;;;15.98;87.47
76753;BME280;65687;51.308;16.916;2023-07-29T02:53:33;99008.80;;;16.01;87.54
76753;BME280;65687;51.308;16.916;2023-07-29T02:58:35;99005.80;;;16.03;87.48
76753;BME280;65687;51.308;16.916;2023-07-29T03:03:37;99010.55;;;16.03;87.29
76753;BME280;65687;51.308;16.916;2023-07-29T03:08:39;99006.60;;;16.01;87.20
76753;BME280;65687;51.308;16.916;2023-07-29T03:13:41;99014.45;;;15.96;87.38
76753;BME280;65687;51.308;16.916;2023-07-29T03:18:43;99017.61;;;15.94;87.01
76753;BME280;65687;51.308;16.916;2023-07-29T03:23:45;99019.17;;;15.89;87.09
76753;BME280;65687;51.308;16.916;2023-07-29T03:28:46;99025.25;;;15.82;87.38
76753;BME280;65687;51.308;16.916;2023-07-29T03:33:48;99034.09;;;15.82;87.16
76753;BME280;65687;51.308;16.916;2023-07-29T03:38:49;99038.95;;;15.84;87.44
76753;BME280;65687;51.308;16.916;2023-07-29T03:43:51;99040.34;;;15.85;87.09
76753;BME280;65687;51.308;16.916;2023-07-29T03:48:52;99046.30;;;15.85;87.11
76753;BME280;65687;51.308;16.916;2023-07-29T03:53:54;99046.78;;;15.85;86.97
76753;BME280;65687;51.308;16.916;2023-07-29T03:59:05;99050.96;;;15.82;87.15
76753;BME280;65687;51.308;16.916;2023-07-29T04:04:07;99051.48;;;15.83;87.04
76753;BME280;65687;51.308;16.916;2023-07-29T04:09:08;99053.67;;;15.87;87.22
76753;BME280;65687;51.308;16.916;2023-07-29T04:14:10;99058.46;;;15.88;87.23
76753;BME280;65687;51.308;16.916;2023-07-29T04:19:11;99061.87;;;15.93;87.25
76753;BME280;65687;51.308;16.916;2023-07-29T04:24:13;99061.29;;;15.97;87.46
76753;BME280;65687;51.308;16.916;2023-07-29T04:29:14;99056.06;;;15.98;87.50
76753;BME280;65687;51.308;16.916;2023-07-29T04:34:19;99054.41;;;15.99;87.64
76753;BME280;65687;51.308;16.916;2023-07-29T04:39:21;99052.89;;;16.00;87.95
76753;BME280;65687;51.308;16.916;2023-07-29T04:44:22;99053.44;;;16.01;88.07
76753;BME280;65687;51.308;16.916;2023-07-29T04:49:24;99052.11;;;16.03;87.98
76753;BME280;65687;51.308;16.916;2023-07-29T04:54:25;99051.59;;;16.02;88.15
76753;BME280;65687;51.308;16.916;2023-07-29T04:59:27;99059.21;;;16.01;88.53
76753;BME280;65687;51.308;16.916;2023-07-29T05:04:28;99061.62;;;16.02;88.69
76753;BME280;65687;51.308;16.916;2023-07-29T05:09:30;99058.66;;;16.05;89.02
76753;BME280;65687;51.308;16.916;2023-07-29T05:14:31;99066.31;;;16.10;88.98
76753;BME280;65687;51.308;16.916;2023-07-29T05:19:33;99068.87;;;16.16;88.92
76753;BME280;65687;51.308;16.916;2023-07-29T05:24:34;99067.45;;;16.25;89.36
76753;BME280;65687;51.308;16.916;2023-07-29T05:29:35;99064.65;;;16.28;89.23
76753;BME280;65687;51.308;16.916;2023-07-29T05:34:37;99069.58;;;16.34;89.32
76753;BME280;65687;51.308;16.916;2023-07-29T05:39:38;99065.30;;;16.39;89.53
76753;BME280;65687;51.308;16.916;2023-07-29T05:44:40;99062.59;;;16.45;89.49
76753;BME280;65687;51.308;16.916;2023-07-29T05:49:41;99068.52;;;16.56;89.02
76753;BME280;65687;51.308;16.916;2023-07-29T05:54:43;99077.55;;;16.72;87.69
76753;BME280;65687;51.308;16.916;2023-07-29T05:59:45;99074.95;;;16.89;86.82
76753;BME280;65687;51.308;16.916;2023-07-29T06:04:46;99078.86;;;17.07;86.31
76753;BME280;65687;51.308;16.916;2023-07-29T06:09:48;99073.52;;;17.24;85.90
76753;BME280;65687;51.308;16.916;2023-07-29T06:14:49;99072.40;;;17.41;86.09
76753;BME280;65687;51.308;16.916;2023-07-29T06:19:51;99072.73;;;17.60;85.37
76753;BME280;65687;51.308;16.916;2023-07-29T06:24:52;99072.10;;;17.83;84.70
76753;BME280;65687;51.308;16.916;2023-07-29T06:29:54;99071.11;;;18.06;84.47
76753;BME280;65687;51.308;16.916;2023-07-29T06:34:55;99070.36;;;18.34;83.62
76753;BME280;65687;51.308;16.916;2023-07-29T06:39:57;99066.56;;;18.63;82.91
76753;BME280;65687;51.308;16.916;2023-07-29T06:44:58;99062.01;;;18.83;82.57
76753;BME280;65687;51.308;16.916;2023-07-29T06:50:00;99057.92;;;19.02;81.82
76753;BME280;65687;51.308;16.916;2023-07-29T06:55:02;99054.98;;;19.19;81.70
76753;BME280;65687;51.308;16.916;2023-07-29T07:00:03;99050.80;;;19.34;81.39
76753;BME280;65687;51.308;16.916;2023-07-29T07:05:05;99052.58;;;19.46;81.37
76753;BME280;65687;51.308;16.916;2023-07-29T07:10:07;99050.38;;;19.58;81.06
76753;BME280;65687;51.308;16.916;2023-07-29T07:15:09;99047.17;;;19.82;79.83
76753;BME280;65687;51.308;16.916;2023-07-29T07:20:11;99054.38;;;20.18;78.11
76753;BME280;65687;51.308;16.916;2023-07-29T07:25:12;99050.83;;;20.44;77.34
76753;BME280;65687;51.308;16.916;2023-07-29T07:30:14;99062.97;;;20.69;76.43
76753;BME280;65687;51.308;16.916;2023-07-29T07:35:16;99060.11;;;20.89;75.29
76753;BME280;65687;51.308;16.916;2023-07-29T07:40:17;99064.14;;;21.11;75.33
76753;BME280;65687;51.308;16.916;2023-07-29T07:45:19;99059.02;;;21.47;73.90
76753;BME280;65687;51.308;16.916;2023-07-29T07:50:21;99056.19;;;21.80;72.45
76753;BME280;65687;51.308;16.916;2023-07-29T07:55:22;99047.91;;;21.97;71.89
76753;BME280;65687;51.308;16.916;2023-07-29T08:00:24;99044.58;;;22.13;70.58
76753;BME280;65687;51.308;16.916;2023-07-29T08:05:25;99036.91;;;22.27;70.18
76753;BME280;65687;51.308;16.916;2023-07-29T08:10:27;99033.48;;;22.65;69.72
76753;BME280;65687;51.308;16.916;2023-07-29T08:15:28;99030.19;;;23.07;67.48
76753;BME280;65687;51.308;16.916;2023-07-29T08:20:30;99027.09;;;23.19;68.00
76753;BME280;65687;51.308;16.916;2023-07-29T08:25:31;99026.10;;;23.48;66.48
76753;BME280;65687;51.308;16.916;2023-07-29T08:30:32;99018.70;;;23.72;65.60
76753;BME280;65687;51.308;16.916;2023-07-29T08:35:34;99009.68;;;23.98;64.51
76753;BME280;65687;51.308;16.916;2023-07-29T08:40:37;99004.98;;;24.29;62.54
76753;BME280;65687;51.308;16.916;2023-07-29T08:45:43;98996.66;;;24.37;62.37
76753;BME280;65687;51.308;16.916;2023-07-29T08:50:45;98991.81;;;24.41;61.93
76753;BME280;65687;51.308;16.916;2023-07-29T08:55:48;98986.39;;;24.58;60.13
76753;BME280;65687;51.308;16.916;2023-07-29T09:00:51;98992.86;;;24.39;60.38
76753;BME280;65687;51.308;16.916;2023-07-29T09:05:55;98992.34;;;24.38;61.00
76753;BME280;65687;51.308;16.916;2023-07-29T09:10:58;98992.73;;;24.65;61.61
76753;BME280;65687;51.308;16.916;2023-07-29T09:16:00;98990.71;;;24.55;60.90
76753;BME280;65687;51.308;16.916;2023-07-29T09:21:01;98984.67;;;24.54;61.02
76753;BME280;65687;51.308;16.916;2023-07-29T09:26:03;98988.25;;;24.96;59.57
76753;BME280;65687;51.308;16.916;2023-07-29T09:31:05;98984.98;;;24.96;58.76
76753;BME280;65687;51.308;16.916;2023-07-29T09:36:10;98984.90;;;24.75;59.00
76753;BME280;65687;51.308;16.916;2023-07-29T09:41:13;98979.45;;;24.64;60.34
76753;BME280;65687;51.308;16.916;2023-07-29T09:46:15;98966.59;;;24.79;62.11
76753;BME280;65687;51.308;16.916;2023-07-29T09:51:17;98965.73;;;25.05;58.51
76753;BME280;65687;51.308;16.916;2023-07-29T09:56:25;98967.39;;;25.17;57.26
76753;BME280;65687;51.308;16.916;2023-07-29T10:01:27;98973.21;;;25.01;57.42
76753;BME280;65687;51.308;16.916;2023-07-29T10:06:29;98969.38;;;25.06;57.58
76753;BME280;65687;51.308;16.916;2023-07-29T10:11:32;98965.45;;;25.43;56.48
76753;BME280;65687;51.308;16.916;2023-07-29T10:16:39;98952.61;;;25.68;55.77
76753;BME280;65687;51.308;16.916;2023-07-29T10:21:44;98952.26;;;25.69;55.85
76753;BME280;65687;51.308;16.916;2023-07-29T10:26:46;98958.30;;;25.69;54.95
76753;BME280;65687;51.308;16.916;2023-07-29T10:31:54;98955.00;;;25.89;53.76
76753;BME280;65687;51.308;16.916;2023-07-29T10:36:56;98943.15;;;25.80;53.71
76753;BME280;65687;51.308;16.916;2023-07-29T10:42:02;98935.27;;;25.73;54.03
76753;BME280;65687;51.308;16.916;2023-07-29T10:47:12;98939.98;;;25.85;53.30
76753;BME280;65687;51.308;16.916;2023-07-29T10:52:16;98923.05;;;25.83;55.03
76753;BME280;65687;51.308;16.916;2023-07-29T11:02:35;98897.27;;;25.82;52.34
76753;BME280;65687;51.308;16.916;2023-07-29T11:07:47;98888.96;;;25.99;52.04
76753;BME280;65687;51.308;16.916;2023-07-29T11:12:50;98888.70;;;25.91;50.97
76753;BME280;65687;51.308;16.916;2023-07-29T11:22:55;98884.02;;;26.07;50.73
76753;BME280;65687;51.308;16.916;2023-07-29T11:27:59;98882.39;;;25.98;50.62
76753;BME280;65687;51.308;16.916;2023-07-29T11:33:00;98876.76;;;25.92;49.74
76753;BME280;65687;51.308;16.916;2023-07-29T11:38:02;98857.14;;;25.96;49.36
76753;BME280;65687;51.308;16.916;2023-07-29T11:43:04;98846.75;;;25.97;49.44
76753;BME280;65687;51.308;16.916;2023-07-29T11:48:06;98844.23;;;26.04;48.69
76753;BME280;65687;51.308;16.916;2023-07-29T11:53:08;98844.06;;;26.04;48.54
76753;BME280;65687;51.308;16.916;2023-07-29T11:58:10;98840.35;;;26.10;48.56
76753;BME280;65687;51.308;16.916;2023-07-29T12:03:11;98832.53;;;26.12;48.73
76753;BME280;65687;51.308;16.916;2023-07-29T12:08:14;98830.50;;;26.09;48.62
76753;BME280;65687;51.308;16.916;2023-07-29T12:13:15;98824.38;;;26.14;48.19
76753;BME280;65687;51.308;16.916;2023-07-29T12:18:17;98826.89;;;26.07;47.93
76753;BME280;65687;51.308;16.916;2023-07-29T12:23:24;98827.39;;;25.96;47.76
76753;BME280;65687;51.308;16.916;2023-07-29T12:28:27;98832.41;;;25.95;48.48
76753;BME280;65687;51.308;16.916;2023-07-29T12:33:35;98831.73;;;25.95;48.09
76753;BME280;65687;51.308;16.916;2023-07-29T12:38:37;98819.70;;;25.88;47.92
76753;BME280;65687;51.308;16.916;2023-07-29T12:43:39;98811.88;;;25.78;47.53
76753;BME280;65687;51.308;16.916;2023-07-29T12:48:40;98809.21;;;25.70;47.96
76753;BME280;65687;51.308;16.916;2023-07-29T12:53:42;98808.41;;;25.65;48.41
76753;BME280;65687;51.308;16.916;2023-07-29T12:58:44;98808.46;;;25.60;49.03
76753;BME280;65687;51.308;16.916;2023-07-29T13:03:46;98811.08;;;25.56;49.25
76753;BME280;65687;51.308;16.916;2023-07-29T13:08:48;98806.65;;;25.49;49.81
76753;BME280;65687;51.308;16.916;2023-07-29T13:13:49;98802.94;;;25.42;49.85
76753;BME280;65687;51.308;16.916;2023-07-29T13:18:51;98803.87;;;25.36;49.99
76753;BME280;65687;51.308;16.916;2023-07-29T13:23:52;98804.27;;;25.31;49.77
76753;BME280;65687;51.308;16.916;2023-07-29T13:28:54;98811.56;;;25.28;50.32
76753;BME280;65687;51.308;16.916;2023-07-29T13:33:56;98812.40;;;25.31;52.23
76753;BME280;65687;51.308;16.916;2023-07-29T13:38:58;98810.80;;;25.35;52.34
76753;BME280;65687;51.308;16.916;2023-07-29T13:43:59;98811.20;;;25.29;52.44
76753;BME280;65687;51.308;16.916;2023-07-29T13:49:01;98798.48;;;25.23;52.87
76753;BME280;65687;51.308;16.916;2023-07-29T13:54:04;98791.20;;;25.25;52.87
76753;BME280;65687;51.308;16.916;2023-07-29T13:59:05;98782.07;;;25.38;52.33
76753;BME280;65687;51.308;16.916;2023-07-29T14:04:07;98769.90;;;25.44;51.23
76753;BME280;65687;51.308;16.916;2023-07-29T14:09:08;98764.47;;;25.49;51.21
76753;BME280;65687;51.308;16.916;2023-07-29T14:14:10;98761.52;;;25.49;50.85
76753;BME280;65687;51.308;16.916;2023-07-29T14:19:12;98758.16;;;25.57;50.87
76753;BME280;65687;51.308;16.916;2023-07-29T14:24:13;98753.89;;;25.68;50.54
76753;BME280;65687;51.308;16.916;2023-07-29T14:29:16;98743.77;;;25.74;50.74
76753;BME280;65687;51.308;16.916;2023-07-29T14:34:17;98736.16;;;25.75;50.83
76753;BME280;65687;51.308;16.916;2023-07-29T14:39:19;98729.31;;;25.69;51.46
76753;BME280;65687;51.308;16.916;2023-07-29T14:44:20;98718.67;;;25.63;51.88
76753;BME280;65687;51.308;16.916;2023-07-29T14:49:22;98713.89;;;25.57;51.83
76753;BME280;65687;51.308;16.916;2023-07-29T14:54:23;98706.01;;;25.51;51.77
76753;BME280;65687;51.308;16.916;2023-07-29T14:59:25;98708.89;;;25.43;51.68
76753;BME280;65687;51.308;16.916;2023-07-29T15:04:26;98726.50;;;25.30;51.09
76753;BME280;65687;51.308;16.916;2023-07-29T15:09:28;98739.98;;;24.98;53.08
76753;BME280;65687;51.308;16.916;2023-07-29T15:14:29;98753.95;;;24.15;57.20
76753;BME280;65687;51.308;16.916;2023-07-29T15:19:31;98733.78;;;23.48;61.13
76753;BME280;65687;51.308;16.916;2023-07-29T15:24:33;98724.46;;;23.02;63.91
76753;BME280;65687;51.308;16.916;2023-07-29T15:29:34;98730.19;;;22.56;67.63
76753;BME280;65687;51.308;16.916;2023-07-29T15:34:36;98734.50;;;22.24;69.84
76753;BME280;65687;51.308;16.916;2023-07-29T15:39:38;98739.63;;;22.02;71.64
76753;BME280;65687;51.308;16.916;2023-07-29T15:44:39;98736.30;;;21.85;73.13
76753;BME280;65687;51.308;16.916;2023-07-29T15:49:41;98735.23;;;21.70;74.54
76753;BME280;65687;51.308;16.916;2023-07-29T15:54:42;98739.50;;;21.63;75.58
76753;BME280;65687;51.308;16.916;2023-07-29T15:59:44;98742.25;;;21.63;75.02
76753;BME280;65687;51.308;16.916;2023-07-29T16:04:45;98746.02;;;21.60;77.01
76753;BME280;65687;51.308;16.916;2023-07-29T16:09:47;98754.25;;;21.55;76.83
76753;BME280;65687;51.308;16.916;2023-07-29T16:14:49;98761.46;;;21.51;78.15
76753;BME280;65687;51.308;16.916;2023-07-29T16:19:54;98765.55;;;21.47;78.86
76753;BME280;65687;51.308;16.916;2023-07-29T16:24:56;98768.66;;;21.49;77.84
76753;BME280;65687;51.308;16.916;2023-07-29T16:30:01;98769.70;;;21.53;76.79
76753;BME280;65687;51.308;16.916;2023-07-29T16:35:03;98765.61;;;21.59;75.42
76753;BME280;65687;51.308;16.916;2023-07-29T16:40:06;98770.77;;;21.63;75.11
76753;BME280;65687;51.308;16.916;2023-07-29T16:45:08;98767.52;;;21.66;75.83
76753;BME280;65687;51.308;16.916;2023-07-29T16:50:10;98762.35;;;21.61;78.10
76753;BME280;65687;51.308;16.916;2023-07-29T16:55:12;98764.23;;;21.57;77.54
76753;BME280;65687;51.308;16.916;2023-07-29T17:00:13;98767.34;;;21.58;76.74
76753;BME280;65687;51.308;16.916;2023-07-29T17:05:15;98768.73;;;21.60;76.11
76753;BME280;65687;51.308;16.916;2023-07-29T17:10:16;98763.04;;;21.63;75.29
76753;BME280;65687;51.308;16.916;2023-07-29T17:15:18;98760.14;;;21.65;75.11
76753;BME280;65687;51.308;16.916;2023-07-29T17:20:19;98751.20;;;21.67;74.82
76753;BME280;65687;51.308;16.916;2023-07-29T17:25:21;98744.34;;;21.69;76.14
76753;BME280;65687;51.308;16.916;2023-07-29T17:30:24;98743.46;;;21.63;77.81
76753;BME280;65687;51.308;16.916;2023-07-29T17:35:30;98742.06;;;21.61;77.98
76753;BME280;65687;51.308;16.916;2023-07-29T17:40:31;98748.09;;;21.60;76.13
76753;BME280;65687;51.308;16.916;2023-07-29T17:45:33;98760.95;;;21.53;76.66
76753;BME280;65687;51.308;16.916;2023-07-29T17:50:34;98768.07;;;21.34;77.84
76753;BME280;65687;51.308;16.916;2023-07-29T17:55:36;98782.77;;;21.19;78.05
76753;BME280;65687;51.308;16.916;2023-07-29T18:00:39;98793.42;;;20.98;78.56
76753;BME280;65687;51.308;16.916;2023-07-29T18:05:40;98801.73;;;20.81;78.67
76753;BME280;65687;51.308;16.916;2023-07-29T18:10:42;98803.52;;;20.70;78.67
76753;BME280;65687;51.308;16.916;2023-07-29T18:15:44;98810.60;;;20.55;78.98
76753;BME280;65687;51.308;16.916;2023-07-29T18:20:48;98808.46;;;20.45;79.32
76753;BME280;65687;51.308;16.916;2023-07-29T18:25:50;98813.70;;;20.38;79.56
76753;BME280;65687;51.308;16.916;2023-07-29T18:30:54;98814.67;;;20.31;79.84
76753;BME280;65687;51.308;16.916;2023-07-29T18:35:56;98810.59;;;20.19;80.29
76753;BME280;65687;51.308;16.916;2023-07-29T18:40:58;98822.92;;;20.19;79.85
76753;BME280;65687;51.308;16.916;2023-07-29T18:45:59;98836.10;;;20.16;79.81
76753;BME280;65687;51.308;16.916;2023-07-29T18:51:01;98870.16;;;20.11;78.03
76753;BME280;65687;51.308;16.916;2023-07-29T18:56:03;98878.46;;;20.18;74.52
76753;BME280;65687;51.308;16.916;2023-07-29T19:01:04;98871.98;;;20.21;72.92
76753;BME280;65687;51.308;16.916;2023-07-29T19:06:06;98869.06;;;20.20;71.81
76753;BME280;65687;51.308;16.916;2023-07-29T19:11:07;98864.68;;;20.12;72.28
76753;BME280;65687;51.308;16.916;2023-07-29T19:16:09;98873.85;;;20.04;72.13
76753;BME280;65687;51.308;16.916;2023-07-29T19:21:10;98884.16;;;19.93;73.41
76753;BME280;65687;51.308;16.916;2023-07-29T19:26:12;98886.91;;;19.80;73.13
76753;BME280;65687;51.308;16.916;2023-07-29T19:31:17;98887.62;;;19.69;72.60
76753;BME280;65687;51.308;16.916;2023-07-29T19:36:18;98889.62;;;19.52;72.25
76753;BME280;65687;51.308;16.916;2023-07-29T19:41:20;98888.30;;;19.34;72.89
76753;BME280;65687;51.308;16.916;2023-07-29T19:46:21;98899.92;;;19.21;73.18
76753;BME280;65687;51.308;16.916;2023-07-29T19:51:26;98893.89;;;19.08;73.64
76753;BME280;65687;51.308;16.916;2023-07-29T19:56:27;98897.90;;;19.02;73.83
76753;BME280;65687;51.308;16.916;2023-07-29T20:01:29;98895.02;;;18.93;74.63
76753;BME280;65687;51.308;16.916;2023-07-29T20:06:30;98910.80;;;18.85;75.52
76753;BME280;65687;51.308;16.916;2023-07-29T20:11:32;98935.95;;;18.85;75.67
76753;BME280;65687;51.308;16.916;2023-07-29T20:16:34;98941.79;;;18.86;73.84
76753;BME280;65687;51.308;16.916;2023-07-29T20:21:36;98944.91;;;18.89;73.21
76753;BME280;65687;51.308;16.916;2023-07-29T20:26:37;98942.62;;;18.85;73.84
76753;BME280;65687;51.308;16.916;2023-07-29T20:31:39;98942.48;;;18.77;74.11
76753;BME280;65687;51.308;16.916;2023-07-29T20:36:40;98937.31;;;18.65;75.36
76753;BME280;65687;51.308;16.916;2023-07-29T20:41:42;98933.83;;;18.46;76.98
76753;BME280;65687;51.308;16.916;2023-07-29T20:46:44;98914.08;;;18.32;78.29
76753;BME280;65687;51.308;16.916;2023-07-29T20:51:46;98901.08;;;18.23;79.24
76753;BME280;65687;51.308;16.916;2023-07-29T20:56:47;98891.28;;;18.12;80.37
76753;BME280;65687;51.308;16.916;2023-07-29T21:01:49;98886.21;;;17.97;81.04
76753;BME280;65687;51.308;16.916;2023-07-29T21:06:51;98892.90;;;17.91;81.34
76753;BME280;65687;51.308;16.916;2023-07-29T21:11:53;98921.21;;;17.88;81.57
76753;BME280;65687;51.308;16.916;2023-07-29T21:16:56;98944.46;;;17.81;82.03
76753;BME280;65687;51.308;16.916;2023-07-29T21:21:57;98955.05;;;17.74;82.16
76753;BME280;65687;51.308;16.916;2023-07-29T21:26:59;98977.27;;;17.66;82.55
76753;BME280;65687;51.308;16.916;2023-07-29T21:32:00;98965.02;;;17.61;82.41
76753;BME280;65687;51.308;16.916;2023-07-29T21:37:02;98950.42;;;17.59;82.46
76753;BME280;65687;51.308;16.916;2023-07-29T21:42:03;98971.89;;;17.57;82.48
76753;BME280;65687;51.308;16.916;2023-07-29T21:47:05;98972.41;;;17.50;82.64
76753;BME280;65687;51.308;16.916;2023-07-29T21:52:07;98966.33;;;17.45;82.82
76753;BME280;65687;51.308;16.916;2023-07-29T21:57:08;98975.05;;;17.39;83.08
76753;BME280;65687;51.308;16.916;2023-07-29T22:02:11;98976.61;;;17.33;82.96
76753;BME280;65687;51.308;16.916;2023-07-29T22:07:13;98972.13;;;17.30;82.97
76753;BME280;65687;51.308;16.916;2023-07-29T22:12:14;98979.06;;;17.28;83.04
76753;BME280;65687;51.308;16.916;2023-07-29T22:17:16;98985.40;;;17.22;83.22
76753;BME280;65687;51.308;16.916;2023-07-29T22:22:17;98981.16;;;17.16;83.19
76753;BME280;65687;51.308;16.916;2023-07-29T22:27:19;98982.90;;;17.11;83.27
76753;BME280;65687;51.308;16.916;2023-07-29T22:32:20;98985.69;;;17.06;83.30
76753;BME280;65687;51.308;16.916;2023-07-29T22:37:22;98986.54;;;17.00;83.43
76753;BME280;65687;51.308;16.916;2023-07-29T22:42:24;98989.64;;;16.94;83.35
76753;BME280;65687;51.308;16.916;2023-07-29T22:47:25;98990.64;;;16.87;83.44
76753;BME280;65687;51.308;16.916;2023-07-29T22:52:27;98990.00;;;16.83;83.38
76753;BME280;65687;51.308;16.916;2023-07-29T22:57:28;98988.66;;;16.77;83.54
76753;BME280;65687;51.308;16.916;2023-07-29T23:02:30;98987.81;;;16.71;83.78
76753;BME280;65687;51.308;16.916;2023-07-29T23:07:31;98984.95;;;16.65;84.04
76753;BME280;65687;51.308;16.916;2023-07-29T23:12:34;98987.63;;;16.53;84.50
76753;BME280;65687;51.308;16.916;2023-07-29T23:17:35;98988.81;;;16.46;84.46
76753;BME280;65687;51.308;16.916;2023-07-29T23:22:37;98987.36;;;16.43;84.53
76753;BME280;65687;51.308;16.916;2023-07-29T23:27:39;98989.23;;;16.37;84.74
76753;BME280;65687;51.308;16.916;2023-07-29T23:32:40;98992.69;;;16.32;84.95
76753;BME280;65687;51.308;16.916;2023-07-29T23:37:42;98988.31;;;16.29;84.98
76753;BME280;65687;51.308;16.916;2023-07-29T23:42:43;98993.35;;;16.26;85.23
76753;BME280;65687;51.308;16.916;2023-07-29T23:47:45;98995.27;;;16.22;85.14
76753;BME280;65687;51.308;16.916;2023-07-29T23:52:46;98998.94;;;16.20;85.43
76753;BME280;65687;51.308;16.916;2023-07-29T23:57:48;98996.66;;;16.16;85.29
